createdAt,value
2022-11-29T00:00:52.509Z,5.05
2022-11-29T00:03:57.899Z,4.68
2022-11-29T00:07:01.418Z,4.73
2022-11-29T00:10:05.760Z,4.43
2022-11-29T00:13:09.141Z,4.48
2022-11-29T00:16:14.858Z,4.26
2022-11-29T00:19:18.646Z,4.26
2022-11-29T00:22:23.678Z,4.21
2022-11-29T00:25:27.476Z,4.33
2022-11-29T00:28:31.217Z,4.36
2022-11-29T00:31:36.160Z,4.56
2022-11-29T00:34:40.000Z,4.71
2022-11-29T00:37:43.402Z,4.39
2022-11-29T00:40:52.708Z,4.16
2022-11-29T00:43:56.295Z,4.21
2022-11-29T00:47:01.466Z,3.82
2022-11-29T00:50:05.496Z,3.90
2022-11-29T00:53:09.159Z,3.68
2022-11-29T00:56:12.770Z,3.76
2022-11-29T00:59:16.518Z,3.90
2022-11-29T01:02:21.393Z,3.90
2022-11-29T01:05:25.208Z,3.83
2022-11-29T01:08:28.819Z,3.66
2022-11-29T01:11:32.719Z,3.76
2022-11-29T01:14:36.164Z,3.81
2022-11-29T01:17:41.353Z,3.72
2022-11-29T01:20:44.754Z,3.53
2022-11-29T01:23:50.304Z,3.87
2022-11-29T01:26:54.010Z,3.92
2022-11-29T01:29:57.718Z,3.92
2022-11-29T01:33:02.550Z,3.75
2022-11-29T01:36:08.290Z,3.74
2022-11-29T01:39:11.875Z,3.71
2022-11-29T01:42:16.212Z,3.79
2022-11-29T01:45:26.052Z,3.62
2022-11-29T01:48:34.192Z,3.78
2022-11-29T01:51:41.182Z,3.66
2022-11-29T01:54:49.333Z,3.73
2022-11-29T01:57:53.334Z,3.86
2022-11-29T02:00:58.193Z,3.96
2022-11-29T02:04:03.527Z,3.95
2022-11-29T02:07:07.170Z,4.23
2022-11-29T02:10:11.558Z,4.32
2022-11-29T02:13:25.417Z,4.40
2022-11-29T02:16:35.678Z,4.39
2022-11-29T02:20:11.813Z,4.40
2022-11-29T02:23:49.401Z,4.29
2022-11-29T02:27:26.907Z,4.30
2022-11-29T02:31:01.265Z,4.52
2022-11-29T02:34:21.763Z,4.45
2022-11-29T02:38:10.655Z,4.30
2022-11-29T02:41:28.811Z,4.33
2022-11-29T02:45:13.929Z,4.22
2022-11-29T02:48:44.693Z,4.09
2022-11-29T02:51:59.378Z,4.39
2022-11-29T02:55:11.249Z,4.40
2022-11-29T02:58:24.428Z,4.29
2022-11-29T03:01:35.001Z,4.46
2022-11-29T03:04:46.663Z,4.64
2022-11-29T03:07:59.994Z,4.47
2022-11-29T03:11:13.396Z,4.51
2022-11-29T03:14:25.351Z,4.54
2022-11-29T03:17:37.727Z,4.57
2022-11-29T03:20:56.503Z,4.47
2022-11-29T03:24:06.465Z,4.27
2022-11-29T03:27:14.033Z,4.38
2022-11-29T03:30:21.707Z,4.36
2022-11-29T03:33:34.258Z,4.37
2022-11-29T03:36:46.416Z,4.37
2022-11-29T03:39:57.674Z,4.41
2022-11-29T03:43:07.894Z,4.41
2022-11-29T03:46:17.107Z,4.40
2022-11-29T03:49:27.423Z,4.44
2022-11-29T03:52:36.925Z,4.34
2022-11-29T03:55:54.836Z,4.45
2022-11-29T03:59:12.040Z,4.19
2022-11-29T04:02:57.810Z,4.18
2022-11-29T04:06:25.591Z,4.46
2022-11-29T04:09:45.095Z,4.24
2022-11-29T04:13:23.501Z,4.38
2022-11-29T04:17:15.331Z,4.35
2022-11-29T04:20:47.988Z,4.07
2022-11-29T04:24:22.800Z,4.23
2022-11-29T04:27:49.327Z,4.31
2022-11-29T04:31:04.294Z,4.11
2022-11-29T04:34:36.201Z,4.22
2022-11-29T04:37:59.533Z,4.48
2022-11-29T04:41:29.535Z,4.29
2022-11-29T04:44:53.545Z,4.48
2022-11-29T04:48:12.311Z,4.50
2022-11-29T04:51:29.256Z,4.48
2022-11-29T04:54:40.529Z,4.67
2022-11-29T04:57:51.365Z,4.51
2022-11-29T05:01:03.233Z,4.40
2022-11-29T05:04:17.430Z,4.70
2022-11-29T05:07:34.130Z,4.70
2022-11-29T05:10:45.723Z,4.86
2022-11-29T05:13:58.083Z,4.58
2022-11-29T05:17:18.581Z,4.85
2022-11-29T05:20:42.770Z,4.85
2022-11-29T05:23:56.429Z,4.71
2022-11-29T05:27:08.525Z,4.78
2022-11-29T05:30:15.535Z,4.56
2022-11-29T05:33:37.754Z,4.49
2022-11-29T05:36:47.671Z,4.37
2022-11-29T05:40:05.535Z,4.01
2022-11-29T05:43:29.587Z,4.05
2022-11-29T05:46:45.001Z,3.69
2022-11-29T05:50:01.602Z,3.85
2022-11-29T05:53:16.808Z,3.98
2022-11-29T05:56:29.595Z,4.27
2022-11-29T05:59:36.909Z,4.10
2022-11-29T06:02:53.614Z,4.26
2022-11-29T06:06:01.403Z,4.19
2022-11-29T06:09:14.572Z,4.11
2022-11-29T06:12:22.729Z,4.27
2022-11-29T06:15:50.049Z,4.23
2022-11-29T06:19:12.916Z,3.91
2022-11-29T06:22:38.142Z,3.88
2022-11-29T06:26:02.337Z,4.14
2022-11-29T06:29:25.319Z,3.90
2022-11-29T06:32:37.541Z,3.98
2022-11-29T06:35:46.563Z,4.02
2022-11-29T06:38:50.722Z,4.20
2022-11-29T06:41:55.874Z,4.24
2022-11-29T06:44:59.970Z,4.25
2022-11-29T06:48:06.467Z,4.33
2022-11-29T06:51:19.974Z,3.95
2022-11-29T06:54:36.440Z,4.15
2022-11-29T06:57:56.596Z,4.32
2022-11-29T07:01:12.631Z,4.37
2022-11-29T07:04:45.713Z,4.39
2022-11-29T07:07:49.926Z,4.20
2022-11-29T07:10:56.155Z,4.25
2022-11-29T07:14:01.756Z,4.42
2022-11-29T07:17:17.030Z,3.78
2022-11-29T07:20:28.930Z,4.03
2022-11-29T07:23:36.971Z,4.15
2022-11-29T07:26:47.569Z,4.16
2022-11-29T07:30:06.425Z,4.33
2022-11-29T07:33:19.515Z,4.53
2022-11-29T07:36:34.365Z,4.39
2022-11-29T07:39:46.166Z,4.33
2022-11-29T07:43:04.523Z,4.46
2022-11-29T07:46:10.734Z,4.54
2022-11-29T07:49:14.697Z,4.38
2022-11-29T07:52:19.123Z,4.71
2022-11-29T07:55:25.769Z,4.28
2022-11-29T07:58:29.379Z,4.39
2022-11-29T08:01:53.390Z,4.51
2022-11-29T08:04:57.105Z,4.66
2022-11-29T08:08:01.097Z,4.76
2022-11-29T08:11:10.367Z,4.44
2022-11-29T08:14:14.141Z,4.68
2022-11-29T08:17:19.410Z,4.94
2022-11-29T08:20:23.356Z,5.08
2022-11-29T08:23:26.784Z,5.33
2022-11-29T08:26:31.946Z,5.36
2022-11-29T08:29:35.731Z,5.24
2022-11-29T08:32:41.114Z,5.36
2022-11-29T08:35:44.550Z,5.48
2022-11-29T08:38:48.624Z,5.23
2022-11-29T08:41:52.104Z,5.32
2022-11-29T08:44:55.748Z,5.22
2022-11-29T08:48:00.638Z,5.53
2022-11-29T08:51:06.437Z,5.85
2022-11-29T08:54:10.163Z,5.68
2022-11-29T08:57:39.204Z,6.01
2022-11-29T09:00:38.797Z,5.85
2022-11-29T09:04:07.753Z,5.59
2022-11-29T09:07:13.559Z,6.03
2022-11-29T09:10:17.360Z,5.92
2022-11-29T09:13:20.742Z,6.03
2022-11-29T09:16:26.347Z,5.69
2022-11-29T09:19:31.183Z,5.33
2022-11-29T09:22:35.019Z,5.67
2022-11-29T09:25:38.450Z,5.81
2022-11-29T09:28:42.602Z,5.91
2022-11-29T09:31:46.259Z,5.97
2022-11-29T09:34:51.624Z,5.77
2022-11-29T09:37:55.206Z,5.94
2022-11-29T09:41:06.435Z,5.42
2022-11-29T09:44:17.818Z,5.59
2022-11-29T09:47:39.018Z,5.40
